Cuddy, PA (15031)

7:50 PM EST on December 09, 2016 (GMT -0500)
South Fayette | | Change Station

Elev 1050 ft 40.35 °N, 80.17 °W | Updated 19 seconds ago

Mostly Cloudy
Mostly Cloudy
22.5 °F
Feels Like 22 °F
N
1.4
Wind Variable Wind from SE
Gusts 2.7 mph

Today
High -- | Low -- °F
--% Chance of Precip.
Yesterday
High -- | Low -- °F
Precip. -- in
Pressure 30.39 in
Visibility 10.0 miles
Clouds Few 2000 ft
Scattered Clouds 6500 ft
Windchill 22 °F
Dew Point 18 °F
Humidity 83%
Rainfall 0.00 in
Snow Depth Not available.
7:32 AM 4:54 PM
Waxing Gibbous, 78% visible
SPECI KPIT 100016Z 25008KT 10SM FEW020 SCT065 M03/M08 A3039 RMK AO2 T10331078
Pressure 30.39 in
Visibility 10.0 miles
Clouds Few 2000 ft
Scattered Clouds 6500 ft
Windchill 22 °F
Dew Point 18 °F
Humidity 83%
Rainfall 0.00 in
Snow Depth Not available.
7:32 AM 4:54 PM
Waxing Gibbous, 78% visible
SPECI KPIT 100016Z 25008KT 10SM FEW020 SCT065 M03/M08 A3039 RMK AO2 T10331078

10-Day Weather Forecast

Almanac

Astronomy

Dec. 09, 2016 Rise Set
Actual Time
Civil Twilight
Nautical Twilight
Astronomical Twilight
Moon
Length of Visible Light
Length of Day
Tomorrow will be .
, % of the Moon is Illuminated

Today's Extremes

State Highs State Lows

Community

WunderPhotos

Upload Photos

1,956,534 photos uploaded!

WunderBlog® & News

Nearby

Air Quality

  Air Quality AQ Index Pollutant
Not available.

Snow Depth

Station Depth Elevation

Earthquake Activity

City Distance Mag. Time & Date
Minimum magnitude displayed is 2.5.

Coastal Water Temperatures

Place Temperature

Stations

Nearby Weather Stations

Station Location Temp. Windchill Dew Point Humidity Wind Precip. Elev Updated Type
                   

Watches & Warnings

There are currently no watches in effect.